createdAt,value
2023-04-10T00:01:47.881Z,16.27
2023-04-10T00:04:16.768Z,15.98
2023-04-10T00:06:45.216Z,16.92
2023-04-10T00:09:13.649Z,16.73
2023-04-10T00:11:41.960Z,16.25
2023-04-10T00:14:10.263Z,16.13
2023-04-10T00:16:38.629Z,15.40
2023-04-10T00:19:08.794Z,15.18
2023-04-10T00:21:37.158Z,15.93
2023-04-10T00:24:05.820Z,14.30
2023-04-10T00:26:34.163Z,16.20
2023-04-10T00:29:03.008Z,16.67
2023-04-10T00:31:31.659Z,16.73
2023-04-10T00:33:59.986Z,15.82
2023-04-10T00:36:29.707Z,16.88
2023-04-10T00:38:57.952Z,16.13
2023-04-10T00:41:26.366Z,15.95
2023-04-10T00:43:57.531Z,16.38
2023-04-10T00:46:27.592Z,16.08
2023-04-10T00:48:57.447Z,15.93
2023-04-10T00:51:26.514Z,16.65
2023-04-10T00:53:56.604Z,17.35
2023-04-10T00:56:26.066Z,17.65
2023-04-10T00:58:54.530Z,16.88
2023-04-10T01:01:22.923Z,16.48
2023-04-10T01:03:51.790Z,16.38
2023-04-10T01:06:32.131Z,16.58
2023-04-10T01:09:12.382Z,16.92
2023-04-10T01:11:54.493Z,15.63
2023-04-10T01:14:32.532Z,15.98
2023-04-10T01:17:08.567Z,16.13
2023-04-10T01:20:01.156Z,16.38
2023-04-10T01:22:37.669Z,16.98
2023-04-10T01:25:25.496Z,15.65
2023-04-10T01:28:10.636Z,18.02
2023-04-10T01:30:41.316Z,17.27
2023-04-10T01:33:14.416Z,17.35
2023-04-10T01:35:45.579Z,16.70
2023-04-10T01:38:15.077Z,17.75
2023-04-10T01:40:50.090Z,17.85
2023-04-10T01:43:27.807Z,17.17
2023-04-10T01:45:58.798Z,18.08
2023-04-10T01:48:27.648Z,18.50
2023-04-10T01:50:57.433Z,18.45
2023-04-10T01:53:26.800Z,17.27
2023-04-10T01:55:55.372Z,19.10
2023-04-10T01:58:23.921Z,17.50
2023-04-10T02:00:55.590Z,17.48
2023-04-10T02:03:25.950Z,17.98
2023-04-10T02:06:11.184Z,17.88
2023-04-10T02:08:43.984Z,18.83
2023-04-10T02:11:18.751Z,18.05
2023-04-10T02:13:48.442Z,18.70
2023-04-10T02:18:52.929Z,18.42
2023-04-10T02:21:21.516Z,18.95
2023-04-10T02:23:49.860Z,19.70
2023-04-10T02:26:18.163Z,19.08
2023-04-10T02:28:46.478Z,19.48
2023-04-10T02:31:14.895Z,19.45
2023-04-10T02:33:43.273Z,17.88
2023-04-10T02:36:14.390Z,19.13
2023-04-10T02:38:42.752Z,19.02
2023-04-10T02:41:12.472Z,19.07
2023-04-10T02:43:41.325Z,19.30
2023-04-10T02:46:09.920Z,19.48
2023-04-10T02:48:41.364Z,19.58
2023-04-10T02:51:09.728Z,18.95
2023-04-10T02:53:39.668Z,19.67
2023-04-10T02:56:09.152Z,19.30
2023-04-10T02:58:37.460Z,18.98
2023-04-10T03:01:08.035Z,20.52
2023-04-10T03:03:45.313Z,18.52
2023-04-10T03:06:19.390Z,19.83
2023-04-10T03:08:49.825Z,19.15
2023-04-10T03:11:18.181Z,17.63
2023-04-10T03:13:46.569Z,17.65
2023-04-10T03:16:15.015Z,17.80
2023-04-10T03:18:44.132Z,19.08
2023-04-10T03:21:12.606Z,17.17
2023-04-10T03:23:40.854Z,17.27
2023-04-10T03:26:10.655Z,17.17
2023-04-10T03:28:41.403Z,17.02
2023-04-10T03:31:12.419Z,17.38
2023-04-10T03:36:12.188Z,16.23
2023-04-10T03:38:40.591Z,17.08
2023-04-10T03:41:11.862Z,16.00
2023-04-10T03:43:40.979Z,16.70
2023-04-10T03:46:09.956Z,16.83
2023-04-10T03:48:43.156Z,15.20
2023-04-10T03:51:12.083Z,14.75
2023-04-10T03:53:40.394Z,16.33
2023-04-10T03:56:15.423Z,15.07
2023-04-10T03:58:43.952Z,14.95
2023-04-10T04:01:13.719Z,14.77
2023-04-10T04:04:01.337Z,15.20
2023-04-10T04:06:49.950Z,14.00
2023-04-10T04:09:29.348Z,15.43
2023-04-10T04:12:25.112Z,15.10
2023-04-10T04:15:12.309Z,14.35
2023-04-10T04:17:49.435Z,13.15
2023-04-10T04:20:36.508Z,13.70
2023-04-10T04:23:31.135Z,13.15
2023-04-10T04:26:19.737Z,13.90
2023-04-10T04:28:59.200Z,13.85
2023-04-10T04:31:46.452Z,13.60
2023-04-10T04:34:31.203Z,12.82
2023-04-10T04:37:18.109Z,15.13
2023-04-10T04:40:06.186Z,14.55
2023-04-10T04:42:47.425Z,13.63
2023-04-10T04:45:25.505Z,15.00
2023-04-10T04:48:13.759Z,14.40
2023-04-10T04:51:00.465Z,13.98
2023-04-10T04:53:49.042Z,15.30
2023-04-10T04:56:35.940Z,14.57
2023-04-10T04:59:11.345Z,14.05
2023-04-10T05:01:57.421Z,14.25
2023-04-10T05:04:58.454Z,13.93
2023-04-10T05:07:40.637Z,14.65
2023-04-10T05:10:40.006Z,13.25
2023-04-10T05:13:17.423Z,14.38
2023-04-10T05:16:15.075Z,13.80
2023-04-10T05:19:09.092Z,13.77
2023-04-10T05:21:55.833Z,13.05
2023-04-10T05:24:42.777Z,13.25
2023-04-10T05:27:15.076Z,12.63
2023-04-10T05:30:02.324Z,14.43
2023-04-10T05:33:00.328Z,13.40
2023-04-10T05:35:54.415Z,13.48
2023-04-10T05:38:38.391Z,12.52
2023-04-10T05:41:27.470Z,13.95
2023-04-10T05:44:04.332Z,13.60
2023-04-10T05:46:51.262Z,12.38
2023-04-10T05:49:27.530Z,14.10
2023-04-10T05:52:15.799Z,13.88
2023-04-10T05:54:44.079Z,13.57
2023-04-10T05:57:27.497Z,13.25
2023-04-10T06:00:28.076Z,12.27
2023-04-10T06:06:03.514Z,12.40
2023-04-10T06:08:34.719Z,12.40
2023-04-10T06:11:03.386Z,13.63
2023-04-10T06:13:33.484Z,13.27
2023-04-10T06:16:03.421Z,13.52
2023-04-10T06:18:32.838Z,13.45
2023-04-10T06:21:02.044Z,13.00
2023-04-10T06:23:30.646Z,13.02
2023-04-10T06:26:01.248Z,13.13
2023-04-10T06:28:30.184Z,12.85
2023-04-10T06:31:04.272Z,11.40
2023-04-10T06:33:36.690Z,12.52
2023-04-10T06:36:08.073Z,11.70
2023-04-10T06:38:42.625Z,12.73
2023-04-10T06:41:12.310Z,12.20
2023-04-10T06:43:41.193Z,12.87
2023-04-10T06:46:09.559Z,12.48
2023-04-10T06:48:37.844Z,11.98
2023-04-10T06:51:06.560Z,12.52
2023-04-10T06:53:34.846Z,11.98
2023-04-10T06:56:03.783Z,12.15
2023-04-10T06:58:33.801Z,12.15
2023-04-10T07:01:04.525Z,11.47
2023-04-10T07:03:33.831Z,11.07
2023-04-10T07:06:03.422Z,11.60
2023-04-10T07:08:31.939Z,12.38
2023-04-10T07:11:00.318Z,11.00
2023-04-10T07:13:28.689Z,11.63
2023-04-10T07:15:58.405Z,12.45
2023-04-10T07:18:27.148Z,12.00
2023-04-10T07:20:55.453Z,12.65
2023-04-10T07:23:23.789Z,12.10
2023-04-10T07:25:52.798Z,11.93
2023-04-10T07:28:21.161Z,12.90
2023-04-10T07:30:49.453Z,11.98
2023-04-10T07:33:19.350Z,12.43
2023-04-10T07:35:48.180Z,11.90
2023-04-10T07:38:16.523Z,12.48
2023-04-10T07:40:44.868Z,12.10
2023-04-10T07:43:13.320Z,12.48
2023-04-10T07:45:42.656Z,12.38
2023-04-10T07:48:11.280Z,12.30
2023-04-10T07:50:41.147Z,12.60
2023-04-10T07:53:09.544Z,12.73
2023-04-10T07:55:41.032Z,12.77
2023-04-10T07:58:09.531Z,12.75
2023-04-10T08:00:38.363Z,12.48
2023-04-10T08:03:07.497Z,12.43
2023-04-10T08:05:36.487Z,13.25
2023-04-10T08:08:06.296Z,13.93
2023-04-10T08:10:34.650Z,13.27
2023-04-10T08:13:03.001Z,13.18
2023-04-10T08:15:31.405Z,13.40
2023-04-10T08:17:59.797Z,12.85
2023-04-10T08:20:28.608Z,12.32
2023-04-10T08:23:03.186Z,13.07
2023-04-10T08:25:35.901Z,12.35
2023-04-10T08:28:05.335Z,13.30
2023-04-10T08:30:33.618Z,12.40
2023-04-10T08:33:02.105Z,12.32
2023-04-10T08:35:30.487Z,12.68
2023-04-10T08:38:12.691Z,12.57
2023-04-10T08:40:44.785Z,13.27
2023-04-10T08:43:13.229Z,12.75
2023-04-10T08:45:42.404Z,12.75
2023-04-10T08:48:12.604Z,14.07
2023-04-10T08:50:44.099Z,12.85
2023-04-10T08:53:15.432Z,13.05
2023-04-10T08:55:46.635Z,13.10
2023-04-10T08:58:15.861Z,12.35
2023-04-10T09:00:44.597Z,12.70
2023-04-10T09:03:14.913Z,12.68
2023-04-10T09:05:43.674Z,12.18
2023-04-10T09:08:12.265Z,12.20
2023-04-10T09:10:40.742Z,12.60
2023-04-10T09:13:10.448Z,13.05
2023-04-10T09:15:57.457Z,12.40
2023-04-10T09:18:43.527Z,11.88
2023-04-10T09:21:14.668Z,13.05
2023-04-10T09:23:44.517Z,12.60
2023-04-10T09:26:28.125Z,12.00
2023-04-10T09:29:04.034Z,12.57
2023-04-10T09:31:35.911Z,12.20
2023-04-10T09:34:14.610Z,12.65
2023-04-10T09:36:43.730Z,12.60
2023-04-10T09:39:13.601Z,11.57
2023-04-10T09:41:53.541Z,12.23
2023-04-10T09:44:32.737Z,12.48
2023-04-10T09:47:23.206Z,11.48
2023-04-10T09:49:53.378Z,12.55
2023-04-10T09:52:25.617Z,12.38
2023-04-10T09:54:55.832Z,11.90
2023-04-10T09:57:26.593Z,11.57
2023-04-10T10:02:27.299Z,12.88
2023-04-10T10:04:56.162Z,12.32
2023-04-10T10:07:25.591Z,11.57
2023-04-10T10:09:54.508Z,11.27
2023-04-10T10:12:28.072Z,12.38
2023-04-10T10:15:04.847Z,11.70
2023-04-10T10:17:44.653Z,12.48
2023-04-10T10:20:14.792Z,11.70
2023-04-10T10:22:44.122Z,11.57
2023-04-10T10:25:14.248Z,11.30
2023-04-10T10:27:43.616Z,11.45
2023-04-10T10:30:28.202Z,11.43
2023-04-10T10:32:59.928Z,11.60
2023-04-10T10:35:30.157Z,11.35
2023-04-10T10:38:00.474Z,12.00
2023-04-10T10:40:33.603Z,10.82
2023-04-10T10:43:12.240Z,11.48
2023-04-10T10:45:52.993Z,10.68
2023-04-10T10:50:56.254Z,11.07
2023-04-10T10:53:39.672Z,9.88
2023-04-10T10:56:37.227Z,10.40
2023-04-10T10:59:05.688Z,9.63
2023-04-10T11:01:35.439Z,10.40
2023-04-10T11:04:43.869Z,10.00
2023-04-10T11:07:12.380Z,11.18
2023-04-10T11:09:48.825Z,10.63
2023-04-10T11:12:18.165Z,11.32
2023-04-10T11:14:58.050Z,11.70
2023-04-10T11:17:51.165Z,11.03
2023-04-10T11:20:21.799Z,11.10
2023-04-10T11:23:11.168Z,11.15
2023-04-10T11:25:51.268Z,11.68
2023-04-10T11:28:39.184Z,11.93
2023-04-10T11:31:22.083Z,11.75
2023-04-10T11:34:04.509Z,10.10
2023-04-10T11:36:33.527Z,10.52
2023-04-10T11:39:05.767Z,10.13
2023-04-10T11:41:36.827Z,10.77
2023-04-10T11:44:08.343Z,9.85
2023-04-10T11:46:39.091Z,10.50
2023-04-10T11:51:40.827Z,10.85
2023-04-10T11:54:12.337Z,10.70
2023-04-10T11:56:44.112Z,10.52
2023-04-10T11:59:16.339Z,10.05
2023-04-10T12:01:45.022Z,11.18
2023-04-10T12:04:20.923Z,9.65
2023-04-10T12:06:54.008Z,10.85
2023-04-10T12:09:23.184Z,10.57
2023-04-10T12:11:53.637Z,10.20
2023-04-10T12:14:23.194Z,9.68
2023-04-10T12:16:52.824Z,9.98
2023-04-10T12:19:23.733Z,10.05
2023-04-10T12:21:52.384Z,9.73
2023-04-10T12:24:46.791Z,10.90
2023-04-10T12:27:19.104Z,10.77
2023-04-10T12:29:50.867Z,10.73
2023-04-10T12:32:19.967Z,10.65
2023-04-10T12:34:54.375Z,11.55
2023-04-10T12:37:22.761Z,11.50
2023-04-10T12:39:51.855Z,11.30
2023-04-10T12:42:22.683Z,11.40
2023-04-10T12:44:56.125Z,10.98
2023-04-10T12:47:25.655Z,11.10
2023-04-10T12:50:12.987Z,11.60
2023-04-10T12:52:44.024Z,12.10
2023-04-10T12:55:17.559Z,11.50
2023-04-10T12:57:47.449Z,12.25
2023-04-10T13:00:18.332Z,12.00
2023-04-10T13:02:49.176Z,11.25
2023-04-10T13:05:19.035Z,11.85
2023-04-10T13:07:49.047Z,11.48
2023-04-10T13:10:20.238Z,11.52
2023-04-10T13:12:48.852Z,12.05
2023-04-10T13:15:17.718Z,11.35
2023-04-10T13:17:46.114Z,11.68
2023-04-10T13:20:14.474Z,12.32
2023-04-10T13:22:44.257Z,12.82
2023-04-10T13:25:12.582Z,12.67
2023-04-10T13:27:40.921Z,12.32
2023-04-10T13:30:10.574Z,12.68
2023-04-10T13:32:38.919Z,13.65
2023-04-10T13:35:09.064Z,12.80
2023-04-10T13:37:37.402Z,12.75
2023-04-10T13:40:09.341Z,12.73
2023-04-10T13:42:40.536Z,12.95
2023-04-10T13:45:11.432Z,13.13
2023-04-10T13:47:39.803Z,13.30
2023-04-10T13:50:09.311Z,13.95
2023-04-10T13:52:37.639Z,12.88
2023-04-10T13:55:09.098Z,12.73
2023-04-10T13:57:37.745Z,11.73
2023-04-10T14:00:10.269Z,12.43
2023-04-10T14:02:41.890Z,13.30
2023-04-10T14:05:11.883Z,12.40
2023-04-10T14:07:40.290Z,11.85
2023-04-10T14:10:11.652Z,11.10
2023-04-10T14:12:40.007Z,10.95
2023-04-10T14:15:09.840Z,11.68
2023-04-10T14:17:38.243Z,11.15
2023-04-10T14:20:11.341Z,10.98
2023-04-10T14:22:39.798Z,11.77
2023-04-10T14:25:15.853Z,10.93
2023-04-10T14:27:45.554Z,11.48
2023-04-10T14:30:14.042Z,11.88
2023-04-10T14:32:42.631Z,11.93
2023-04-10T14:35:11.995Z,11.73
2023-04-10T14:37:40.601Z,11.88
2023-04-10T14:40:11.980Z,12.32
2023-04-10T14:42:40.345Z,11.70
2023-04-10T14:45:10.599Z,12.55
2023-04-10T14:47:39.004Z,13.15
2023-04-10T14:50:09.080Z,13.07
2023-04-10T14:52:37.415Z,13.35
2023-04-10T14:55:06.733Z,13.90
2023-04-10T14:57:36.473Z,14.32
2023-04-10T15:00:05.686Z,13.55
2023-04-10T15:02:34.100Z,14.13
2023-04-10T15:05:02.572Z,15.38
2023-04-10T15:07:31.053Z,15.05
2023-04-10T15:09:59.720Z,15.68
2023-04-10T15:12:28.043Z,18.42
2023-04-10T15:14:57.728Z,16.80
2023-04-10T15:17:26.157Z,17.48
2023-04-10T15:19:54.511Z,16.27
2023-04-10T15:22:22.772Z,16.25
2023-04-10T15:24:51.255Z,15.93
2023-04-10T15:27:21.559Z,15.60
2023-04-10T15:29:50.318Z,15.50
2023-04-10T15:32:20.167Z,14.05
2023-04-10T15:34:48.581Z,14.02
2023-04-10T15:37:16.914Z,13.05
2023-04-10T15:39:45.272Z,13.07
2023-04-10T15:42:13.637Z,12.00
2023-04-10T15:44:41.977Z,13.00
2023-04-10T15:47:10.224Z,12.25
2023-04-10T15:49:41.921Z,12.02
2023-04-10T15:52:10.351Z,11.77
2023-04-10T15:54:39.943Z,12.80
2023-04-10T15:57:08.276Z,11.40
2023-04-10T15:59:38.114Z,11.55
2023-04-10T16:02:06.553Z,11.10
2023-04-10T16:04:35.381Z,10.73
2023-04-10T16:07:05.202Z,10.10
2023-04-10T16:09:33.686Z,9.67
2023-04-10T16:12:02.118Z,9.48
2023-04-10T16:14:30.530Z,9.88
2023-04-10T16:16:58.800Z,9.55
2023-04-10T16:19:27.190Z,9.63
2023-04-10T16:21:57.098Z,9.57
2023-04-10T16:24:26.929Z,9.73
2023-04-10T16:26:55.232Z,10.50
2023-04-10T16:29:23.542Z,10.18
2023-04-10T16:31:51.889Z,9.52
2023-04-10T16:34:20.324Z,9.88
2023-04-10T16:36:48.650Z,9.73
2023-04-10T16:39:17.000Z,10.07
2023-04-10T16:41:46.672Z,9.65
2023-04-10T16:44:15.001Z,10.07
2023-04-10T16:46:43.416Z,9.50
2023-04-10T16:49:11.789Z,9.80
2023-04-10T16:51:40.210Z,9.52
2023-04-10T16:54:08.609Z,8.25
2023-04-10T16:56:36.910Z,9.70
2023-04-10T16:59:06.601Z,9.68
2023-04-10T17:01:39.600Z,9.90
2023-04-10T17:04:09.267Z,9.25
2023-04-10T17:06:37.711Z,9.10
2023-04-10T17:09:06.131Z,9.80
2023-04-10T17:11:34.435Z,8.57
2023-04-10T17:14:03.106Z,8.35
2023-04-10T17:16:32.964Z,8.00
2023-04-10T17:19:01.272Z,8.27
2023-04-10T17:21:29.708Z,8.10
2023-04-10T17:23:58.071Z,7.95
2023-04-10T17:26:26.405Z,7.07
2023-04-10T17:28:54.767Z,6.85
2023-04-10T17:31:23.228Z,6.75
2023-04-10T17:33:52.981Z,6.43
2023-04-10T17:36:21.352Z,6.67
2023-04-10T17:38:54.021Z,6.55
2023-04-10T17:41:22.594Z,7.03
2023-04-10T17:43:51.046Z,6.10
2023-04-10T17:46:19.382Z,6.00
2023-04-10T17:48:47.803Z,6.00
2023-04-10T17:51:17.610Z,5.47
2023-04-10T17:53:46.207Z,5.95
2023-04-10T17:56:20.958Z,6.10
2023-04-10T17:58:49.476Z,5.93
2023-04-10T18:01:25.734Z,5.80
2023-04-10T18:03:54.198Z,6.15
2023-04-10T18:06:24.207Z,6.45
2023-04-10T18:08:52.817Z,6.20
2023-04-10T18:11:22.756Z,6.07
2023-04-10T18:13:51.430Z,8.13
2023-04-10T18:16:19.933Z,7.93
2023-04-10T18:18:48.365Z,7.72
2023-04-10T18:21:16.821Z,6.85
2023-04-10T18:23:46.578Z,6.07
2023-04-10T18:26:15.023Z,7.30
2023-04-10T18:28:43.567Z,6.70
2023-04-10T18:31:14.767Z,8.00
2023-04-10T18:33:43.644Z,8.10
2023-04-10T18:36:14.020Z,7.75
2023-04-10T18:38:43.876Z,8.10
2023-04-10T18:41:13.733Z,8.53
2023-04-10T18:43:42.376Z,8.93
2023-04-10T18:46:14.246Z,8.77
2023-04-10T18:48:44.017Z,9.48
2023-04-10T18:51:12.656Z,9.17
2023-04-10T18:53:41.348Z,8.38
2023-04-10T18:56:09.929Z,9.13
2023-04-10T18:58:39.609Z,8.57
2023-04-10T19:01:08.453Z,8.60
2023-04-10T19:03:37.509Z,8.20
2023-04-10T19:06:06.465Z,7.20
2023-04-10T19:08:34.815Z,7.13
2023-04-10T19:11:05.990Z,7.35
2023-04-10T19:13:34.763Z,7.07
2023-04-10T19:16:08.913Z,8.20
2023-04-10T19:18:37.256Z,9.00
2023-04-10T19:21:06.150Z,9.00
2023-04-10T19:23:35.533Z,9.15
2023-04-10T19:26:03.882Z,7.72
2023-04-10T19:28:32.656Z,7.97
2023-04-10T19:31:01.070Z,8.52
2023-04-10T19:33:30.906Z,8.68
2023-04-10T19:35:59.277Z,9.83
2023-04-10T19:38:29.312Z,8.82
2023-04-10T19:40:57.677Z,10.32
2023-04-10T19:43:26.294Z,9.15
2023-04-10T19:45:55.116Z,8.63
2023-04-10T19:48:23.526Z,9.57
2023-04-10T19:50:53.342Z,10.00
2023-04-10T19:53:21.745Z,9.30
2023-04-10T19:55:50.199Z,9.63
2023-04-10T19:58:36.011Z,8.88
2023-04-10T20:01:08.722Z,7.55
2023-04-10T20:03:38.533Z,8.15
2023-04-10T20:06:09.126Z,9.15
2023-04-10T20:08:37.884Z,8.45
2023-04-10T20:11:07.102Z,7.63
2023-04-10T20:13:35.605Z,7.65
2023-04-10T20:16:03.987Z,8.63
2023-04-10T20:18:32.844Z,8.02
2023-04-10T20:21:01.270Z,7.68
2023-04-10T20:23:31.213Z,7.50
2023-04-10T20:25:59.578Z,7.38
2023-04-10T20:28:28.000Z,6.90
2023-04-10T20:30:56.402Z,8.55
2023-04-10T20:33:24.873Z,9.35
2023-04-10T20:35:54.511Z,8.13
2023-04-10T20:38:22.807Z,8.00
2023-04-10T20:40:52.477Z,8.30
2023-04-10T20:43:21.062Z,7.82
2023-04-10T20:45:49.363Z,7.75
2023-04-10T20:48:17.713Z,8.35
2023-04-10T20:50:49.088Z,9.27
2023-04-10T20:53:17.485Z,8.93
2023-04-10T20:55:45.790Z,7.82
2023-04-10T20:58:15.562Z,8.27
2023-04-10T21:00:43.921Z,7.77
2023-04-10T21:03:12.449Z,8.40
2023-04-10T21:05:42.084Z,8.90
2023-04-10T21:08:11.080Z,8.55
2023-04-10T21:10:44.203Z,8.25
2023-04-10T21:13:16.134Z,8.57
2023-04-10T21:15:44.787Z,9.07
2023-04-10T21:18:13.071Z,10.05
2023-04-10T21:20:43.285Z,9.52
2023-04-10T21:23:11.763Z,9.02
2023-04-10T21:25:40.439Z,7.55
2023-04-10T21:28:08.823Z,6.35
2023-04-10T21:30:38.593Z,5.78
2023-04-10T21:33:06.934Z,5.60
2023-04-10T21:35:35.364Z,5.15
2023-04-10T21:38:03.748Z,6.03
2023-04-10T21:40:34.286Z,4.78
2023-04-10T21:43:03.194Z,4.32
2023-04-10T21:45:31.877Z,4.68
2023-04-10T21:48:01.987Z,5.60
2023-04-10T21:50:30.376Z,4.80
2023-04-10T21:53:00.059Z,5.20
2023-04-10T21:55:28.490Z,5.33
2023-04-10T21:57:57.384Z,5.90
2023-04-10T22:00:26.280Z,6.43
2023-04-10T22:02:54.689Z,6.15
2023-04-10T22:05:25.116Z,7.22
2023-04-10T22:07:53.718Z,6.55
2023-04-10T22:10:22.038Z,6.95
2023-04-10T22:12:50.334Z,7.68
2023-04-10T22:15:18.677Z,8.00
2023-04-10T22:17:47.007Z,9.10
2023-04-10T22:20:15.517Z,8.88
2023-04-10T22:22:45.288Z,9.20
2023-04-10T22:25:13.589Z,9.90
2023-04-10T22:27:41.942Z,9.38
2023-04-10T22:30:13.034Z,7.40
2023-04-10T22:32:41.615Z,6.63
2023-04-10T22:35:10.227Z,5.72
2023-04-10T22:37:38.687Z,5.43
2023-04-10T22:40:10.639Z,5.07
2023-04-10T22:42:38.915Z,5.88
2023-04-10T22:45:08.848Z,5.95
2023-04-10T22:47:37.136Z,6.50
2023-04-10T22:50:07.208Z,6.25
2023-04-10T22:52:36.040Z,6.60
2023-04-10T22:55:06.769Z,6.88
2023-04-10T23:00:05.389Z,8.57
2023-04-10T23:02:33.802Z,8.27
2023-04-10T23:05:02.863Z,7.80
2023-04-10T23:07:31.158Z,9.30
2023-04-10T23:10:01.260Z,9.48
2023-04-10T23:12:29.675Z,10.32
2023-04-10T23:14:59.452Z,11.50
2023-04-10T23:17:27.718Z,10.03
2023-04-10T23:19:56.072Z,10.90
2023-04-10T23:22:24.465Z,10.57
2023-04-10T23:24:54.897Z,10.20
2023-04-10T23:27:23.973Z,10.25
2023-04-10T23:29:52.414Z,10.75
2023-04-10T23:32:22.170Z,10.15
2023-04-10T23:34:50.535Z,10.90
2023-04-10T23:37:18.812Z,10.70
2023-04-10T23:39:47.195Z,10.27
2023-04-10T23:42:15.488Z,10.23
2023-04-10T23:44:43.788Z,10.38
2023-04-10T23:47:12.111Z,10.60
2023-04-10T23:49:41.759Z,8.85
2023-04-10T23:52:11.569Z,8.85
2023-04-10T23:54:39.903Z,8.82
2023-04-10T23:57:08.181Z,8.43
2023-04-10T23:59:36.509Z,9.52
